sensor_id;sensor_type;location;lat;lon;timestamp;P1;durP1;ratioP1;P2;durP2;ratioP2
30185;SDS011;31152;49.190;8.122;2023-04-06T00:01:39;7.20;;;3.92;;
30185;SDS011;31152;49.190;8.122;2023-04-06T00:04:06;6.90;;;3.75;;
30185;SDS011;31152;49.190;8.122;2023-04-06T00:06:35;6.35;;;3.63;;
30185;SDS011;31152;49.190;8.122;2023-04-06T00:09:02;11.80;;;4.55;;
30185;SDS011;31152;49.190;8.122;2023-04-06T00:11:29;10.85;;;4.25;;
30185;SDS011;31152;49.190;8.122;2023-04-06T00:13:56;7.82;;;3.80;;
30185;SDS011;31152;49.190;8.122;2023-04-06T00:16:22;8.82;;;4.50;;
30185;SDS011;31152;49.190;8.122;2023-04-06T00:18:50;11.70;;;4.10;;
30185;SDS011;31152;49.190;8.122;2023-04-06T00:21:17;8.00;;;4.50;;
30185;SDS011;31152;49.190;8.122;2023-04-06T00:23:46;12.18;;;4.30;;
30185;SDS011;31152;49.190;8.122;2023-04-06T00:26:12;7.80;;;4.07;;
30185;SDS011;31152;49.190;8.122;2023-04-06T00:28:39;9.30;;;4.30;;
30185;SDS011;31152;49.190;8.122;2023-04-06T00:31:08;7.68;;;4.43;;
30185;SDS011;31152;49.190;8.122;2023-04-06T00:33:35;9.88;;;3.85;;
30185;SDS011;31152;49.190;8.122;2023-04-06T00:36:02;9.77;;;4.40;;
30185;SDS011;31152;49.190;8.122;2023-04-06T00:38:29;10.43;;;4.43;;
30185;SDS011;31152;49.190;8.122;2023-04-06T00:40:58;6.72;;;3.45;;
30185;SDS011;31152;49.190;8.122;2023-04-06T00:43:24;8.38;;;3.95;;
30185;SDS011;31152;49.190;8.122;2023-04-06T00:45:51;8.93;;;3.50;;
30185;SDS011;31152;49.190;8.122;2023-04-06T00:48:21;10.85;;;4.22;;
30185;SDS011;31152;49.190;8.122;2023-04-06T00:50:48;12.15;;;4.47;;
30185;SDS011;31152;49.190;8.122;2023-04-06T00:53:14;10.00;;;3.55;;
30185;SDS011;31152;49.190;8.122;2023-04-06T00:55:41;7.93;;;4.07;;
30185;SDS011;31152;49.190;8.122;2023-04-06T00:58:10;9.02;;;3.90;;
30185;SDS011;31152;49.190;8.122;2023-04-06T01:00:37;9.93;;;4.53;;
30185;SDS011;31152;49.190;8.122;2023-04-06T01:03:04;8.23;;;4.20;;
30185;SDS011;31152;49.190;8.122;2023-04-06T01:05:33;7.97;;;4.30;;
30185;SDS011;31152;49.190;8.122;2023-04-06T01:08:06;10.50;;;3.85;;
30185;SDS011;31152;49.190;8.122;2023-04-06T01:10:35;8.98;;;3.65;;
30185;SDS011;31152;49.190;8.122;2023-04-06T01:13:04;7.03;;;4.00;;
30185;SDS011;31152;49.190;8.122;2023-04-06T01:15:34;9.15;;;4.07;;
30185;SDS011;31152;49.190;8.122;2023-04-06T01:18:05;9.48;;;3.97;;
30185;SDS011;31152;49.190;8.122;2023-04-06T01:20:33;8.20;;;3.83;;
30185;SDS011;31152;49.190;8.122;2023-04-06T01:22:59;14.18;;;4.00;;
30185;SDS011;31152;49.190;8.122;2023-04-06T01:25:26;9.75;;;3.92;;
30185;SDS011;31152;49.190;8.122;2023-04-06T01:27:53;9.07;;;3.83;;
30185;SDS011;31152;49.190;8.122;2023-04-06T01:30:20;7.55;;;3.50;;
30185;SDS011;31152;49.190;8.122;2023-04-06T01:32:47;6.68;;;3.83;;
30185;SDS011;31152;49.190;8.122;2023-04-06T01:35:13;13.93;;;3.97;;
30185;SDS011;31152;49.190;8.122;2023-04-06T01:37:40;8.13;;;4.10;;
30185;SDS011;31152;49.190;8.122;2023-04-06T01:40:07;11.25;;;3.63;;
30185;SDS011;31152;49.190;8.122;2023-04-06T01:42:39;14.15;;;4.88;;
30185;SDS011;31152;49.190;8.122;2023-04-06T01:45:09;9.15;;;4.25;;
30185;SDS011;31152;49.190;8.122;2023-04-06T01:47:38;10.63;;;4.20;;
30185;SDS011;31152;49.190;8.122;2023-04-06T01:50:05;9.90;;;3.72;;
30185;SDS011;31152;49.190;8.122;2023-04-06T01:52:33;11.20;;;4.47;;
30185;SDS011;31152;49.190;8.122;2023-04-06T01:55:00;15.90;;;4.22;;
30185;SDS011;31152;49.190;8.122;2023-04-06T01:57:27;8.95;;;3.75;;
30185;SDS011;31152;49.190;8.122;2023-04-06T01:59:54;10.35;;;4.05;;
30185;SDS011;31152;49.190;8.122;2023-04-06T02:02:21;12.02;;;4.10;;
30185;SDS011;31152;49.190;8.122;2023-04-06T02:04:47;7.85;;;3.45;;
30185;SDS011;31152;49.190;8.122;2023-04-06T02:07:14;7.93;;;4.13;;
30185;SDS011;31152;49.190;8.122;2023-04-06T02:09:41;9.50;;;4.28;;
30185;SDS011;31152;49.190;8.122;2023-04-06T02:12:10;8.48;;;3.70;;
30185;SDS011;31152;49.190;8.122;2023-04-06T02:14:36;7.78;;;4.50;;
30185;SDS011;31152;49.190;8.122;2023-04-06T02:17:03;10.57;;;4.15;;
30185;SDS011;31152;49.190;8.122;2023-04-06T02:19:30;13.40;;;4.55;;
30185;SDS011;31152;49.190;8.122;2023-04-06T02:21:57;9.13;;;4.38;;
30185;SDS011;31152;49.190;8.122;2023-04-06T02:24:26;11.95;;;4.60;;
30185;SDS011;31152;49.190;8.122;2023-04-06T02:26:53;7.25;;;4.32;;
30185;SDS011;31152;49.190;8.122;2023-04-06T02:29:22;9.07;;;4.35;;
30185;SDS011;31152;49.190;8.122;2023-04-06T02:31:51;7.68;;;3.53;;
30185;SDS011;31152;49.190;8.122;2023-04-06T02:34:17;12.48;;;4.15;;
30185;SDS011;31152;49.190;8.122;2023-04-06T02:36:46;9.18;;;3.55;;
30185;SDS011;31152;49.190;8.122;2023-04-06T02:39:16;11.60;;;4.13;;
30185;SDS011;31152;49.190;8.122;2023-04-06T02:41:43;8.15;;;4.03;;
30185;SDS011;31152;49.190;8.122;2023-04-06T02:44:10;11.93;;;4.30;;
30185;SDS011;31152;49.190;8.122;2023-04-06T02:46:37;8.27;;;4.07;;
30185;SDS011;31152;49.190;8.122;2023-04-06T02:49:04;9.93;;;4.32;;
30185;SDS011;31152;49.190;8.122;2023-04-06T02:51:32;8.82;;;4.50;;
30185;SDS011;31152;49.190;8.122;2023-04-06T02:53:59;9.05;;;4.30;;
30185;SDS011;31152;49.190;8.122;2023-04-06T02:56:26;13.00;;;4.40;;
30185;SDS011;31152;49.190;8.122;2023-04-06T02:58:53;7.85;;;4.38;;
30185;SDS011;31152;49.190;8.122;2023-04-06T03:01:22;10.75;;;4.28;;
30185;SDS011;31152;49.190;8.122;2023-04-06T03:03:48;9.95;;;4.65;;
30185;SDS011;31152;49.190;8.122;2023-04-06T03:06:18;10.80;;;4.10;;
30185;SDS011;31152;49.190;8.122;2023-04-06T03:08:44;11.43;;;4.35;;
30185;SDS011;31152;49.190;8.122;2023-04-06T03:11:11;12.65;;;4.20;;
30185;SDS011;31152;49.190;8.122;2023-04-06T03:13:40;9.43;;;4.30;;
30185;SDS011;31152;49.190;8.122;2023-04-06T03:16:07;8.10;;;4.20;;
30185;SDS011;31152;49.190;8.122;2023-04-06T03:18:34;9.02;;;4.22;;
30185;SDS011;31152;49.190;8.122;2023-04-06T03:21:03;8.93;;;4.47;;
30185;SDS011;31152;49.190;8.122;2023-04-06T03:23:35;13.52;;;4.30;;
30185;SDS011;31152;49.190;8.122;2023-04-06T03:26:02;11.13;;;4.40;;
30185;SDS011;31152;49.190;8.122;2023-04-06T03:28:29;8.95;;;4.80;;
30185;SDS011;31152;49.190;8.122;2023-04-06T03:30:56;8.35;;;4.28;;
30185;SDS011;31152;49.190;8.122;2023-04-06T03:33:23;9.77;;;3.88;;
30185;SDS011;31152;49.190;8.122;2023-04-06T03:35:50;13.18;;;4.13;;
30185;SDS011;31152;49.190;8.122;2023-04-06T03:38:19;7.22;;;4.00;;
30185;SDS011;31152;49.190;8.122;2023-04-06T03:40:46;11.05;;;4.70;;
30185;SDS011;31152;49.190;8.122;2023-04-06T03:43:13;9.15;;;4.35;;
30185;SDS011;31152;49.190;8.122;2023-04-06T03:45:42;9.30;;;4.63;;
30185;SDS011;31152;49.190;8.122;2023-04-06T03:48:09;7.55;;;4.50;;
30185;SDS011;31152;49.190;8.122;2023-04-06T03:50:38;8.27;;;4.18;;
30185;SDS011;31152;49.190;8.122;2023-04-06T03:53:05;8.35;;;3.97;;
30185;SDS011;31152;49.190;8.122;2023-04-06T03:55:32;8.10;;;4.43;;
30185;SDS011;31152;49.190;8.122;2023-04-06T03:57:58;10.35;;;4.30;;
30185;SDS011;31152;49.190;8.122;2023-04-06T04:00:25;11.95;;;4.13;;
30185;SDS011;31152;49.190;8.122;2023-04-06T04:02:52;10.43;;;4.07;;
30185;SDS011;31152;49.190;8.122;2023-04-06T04:05:19;7.10;;;3.83;;
30185;SDS011;31152;49.190;8.122;2023-04-06T04:07:51;14.57;;;4.78;;
30185;SDS011;31152;49.190;8.122;2023-04-06T04:10:18;11.82;;;4.63;;
30185;SDS011;31152;49.190;8.122;2023-04-06T04:12:45;8.00;;;4.15;;
30185;SDS011;31152;49.190;8.122;2023-04-06T04:15:14;9.90;;;4.47;;
30185;SDS011;31152;49.190;8.122;2023-04-06T04:17:41;9.82;;;4.57;;
30185;SDS011;31152;49.190;8.122;2023-04-06T04:20:12;13.68;;;4.18;;
30185;SDS011;31152;49.190;8.122;2023-04-06T04:22:40;8.48;;;4.70;;
30185;SDS011;31152;49.190;8.122;2023-04-06T04:25:06;10.98;;;4.93;;
30185;SDS011;31152;49.190;8.122;2023-04-06T04:27:34;12.60;;;5.30;;
30185;SDS011;31152;49.190;8.122;2023-04-06T04:30:01;10.77;;;4.60;;
30185;SDS011;31152;49.190;8.122;2023-04-06T04:32:30;10.60;;;5.15;;
30185;SDS011;31152;49.190;8.122;2023-04-06T04:34:59;15.02;;;5.80;;
30185;SDS011;31152;49.190;8.122;2023-04-06T04:37:26;9.63;;;5.18;;
30185;SDS011;31152;49.190;8.122;2023-04-06T04:39:57;9.55;;;4.72;;
30185;SDS011;31152;49.190;8.122;2023-04-06T04:42:24;8.38;;;4.70;;
30185;SDS011;31152;49.190;8.122;2023-04-06T04:44:51;8.95;;;5.18;;
30185;SDS011;31152;49.190;8.122;2023-04-06T04:47:18;14.73;;;6.22;;
30185;SDS011;31152;49.190;8.122;2023-04-06T04:49:47;10.07;;;5.05;;
30185;SDS011;31152;49.190;8.122;2023-04-06T04:52:14;14.68;;;5.65;;
30185;SDS011;31152;49.190;8.122;2023-04-06T04:54:41;14.18;;;5.55;;
30185;SDS011;31152;49.190;8.122;2023-04-06T04:57:08;14.35;;;6.40;;
30185;SDS011;31152;49.190;8.122;2023-04-06T04:59:35;14.48;;;6.60;;
30185;SDS011;31152;49.190;8.122;2023-04-06T05:02:02;19.33;;;6.55;;
30185;SDS011;31152;49.190;8.122;2023-04-06T05:04:31;12.70;;;6.30;;
30185;SDS011;31152;49.190;8.122;2023-04-06T05:07:07;15.40;;;6.47;;
30185;SDS011;31152;49.190;8.122;2023-04-06T05:09:35;14.15;;;7.00;;
30185;SDS011;31152;49.190;8.122;2023-04-06T05:12:02;14.45;;;7.20;;
30185;SDS011;31152;49.190;8.122;2023-04-06T05:14:29;19.38;;;7.40;;
30185;SDS011;31152;49.190;8.122;2023-04-06T05:16:56;15.20;;;7.00;;
30185;SDS011;31152;49.190;8.122;2023-04-06T05:19:25;14.55;;;5.93;;
30185;SDS011;31152;49.190;8.122;2023-04-06T05:21:52;15.73;;;5.93;;
30185;SDS011;31152;49.190;8.122;2023-04-06T05:24:19;11.02;;;6.13;;
30185;SDS011;31152;49.190;8.122;2023-04-06T05:26:45;13.23;;;6.55;;
30185;SDS011;31152;49.190;8.122;2023-04-06T05:29:12;14.57;;;5.93;;
30185;SDS011;31152;49.190;8.122;2023-04-06T05:31:39;18.15;;;6.38;;
30185;SDS011;31152;49.190;8.122;2023-04-06T05:34:06;12.38;;;5.78;;
30185;SDS011;31152;49.190;8.122;2023-04-06T05:36:36;11.10;;;6.28;;
30185;SDS011;31152;49.190;8.122;2023-04-06T05:39:02;16.33;;;6.53;;
30185;SDS011;31152;49.190;8.122;2023-04-06T05:41:29;15.13;;;6.00;;
30185;SDS011;31152;49.190;8.122;2023-04-06T05:43:59;17.90;;;6.18;;
30185;SDS011;31152;49.190;8.122;2023-04-06T05:46:28;14.07;;;6.35;;
30185;SDS011;31152;49.190;8.122;2023-04-06T05:48:54;12.90;;;5.45;;
30185;SDS011;31152;49.190;8.122;2023-04-06T05:51:22;11.13;;;5.32;;
30185;SDS011;31152;49.190;8.122;2023-04-06T05:53:49;11.13;;;5.30;;
30185;SDS011;31152;49.190;8.122;2023-04-06T05:56:18;15.55;;;4.88;;
30185;SDS011;31152;49.190;8.122;2023-04-06T05:58:44;12.48;;;4.75;;
30185;SDS011;31152;49.190;8.122;2023-04-06T06:01:12;9.75;;;4.68;;
30185;SDS011;31152;49.190;8.122;2023-04-06T06:03:39;12.60;;;5.00;;
30185;SDS011;31152;49.190;8.122;2023-04-06T06:06:05;12.25;;;5.65;;
30185;SDS011;31152;49.190;8.122;2023-04-06T06:08:32;11.43;;;4.97;;
30185;SDS011;31152;49.190;8.122;2023-04-06T06:10:59;12.80;;;5.03;;
30185;SDS011;31152;49.190;8.122;2023-04-06T06:13:29;10.68;;;4.85;;
30185;SDS011;31152;49.190;8.122;2023-04-06T06:15:56;11.50;;;5.22;;
30185;SDS011;31152;49.190;8.122;2023-04-06T06:18:22;14.63;;;5.30;;
30185;SDS011;31152;49.190;8.122;2023-04-06T06:20:49;11.00;;;5.18;;
30185;SDS011;31152;49.190;8.122;2023-04-06T06:23:18;10.73;;;5.68;;
30185;SDS011;31152;49.190;8.122;2023-04-06T06:25:47;13.38;;;5.82;;
30185;SDS011;31152;49.190;8.122;2023-04-06T06:28:14;11.80;;;5.38;;
30185;SDS011;31152;49.190;8.122;2023-04-06T06:30:43;19.65;;;6.13;;
30185;SDS011;31152;49.190;8.122;2023-04-06T06:33:10;11.00;;;5.65;;
30185;SDS011;31152;49.190;8.122;2023-04-06T06:35:37;18.58;;;6.13;;
30185;SDS011;31152;49.190;8.122;2023-04-06T06:38:04;15.77;;;6.05;;
30185;SDS011;31152;49.190;8.122;2023-04-06T06:40:31;12.55;;;5.43;;
30185;SDS011;31152;49.190;8.122;2023-04-06T06:42:59;10.68;;;5.75;;
30185;SDS011;31152;49.190;8.122;2023-04-06T06:45:25;17.40;;;5.35;;
30185;SDS011;31152;49.190;8.122;2023-04-06T06:47:52;17.90;;;6.22;;
30185;SDS011;31152;49.190;8.122;2023-04-06T06:50:21;14.60;;;5.45;;
30185;SDS011;31152;49.190;8.122;2023-04-06T06:52:50;9.95;;;5.05;;
30185;SDS011;31152;49.190;8.122;2023-04-06T06:55:17;12.25;;;5.72;;
30185;SDS011;31152;49.190;8.122;2023-04-06T06:57:45;9.43;;;4.65;;
30185;SDS011;31152;49.190;8.122;2023-04-06T07:00:12;11.10;;;5.03;;
30185;SDS011;31152;49.190;8.122;2023-04-06T07:02:42;17.88;;;5.95;;
30185;SDS011;31152;49.190;8.122;2023-04-06T07:05:09;13.23;;;6.03;;
30185;SDS011;31152;49.190;8.122;2023-04-06T07:07:52;30.42;;;7.50;;
30185;SDS011;31152;49.190;8.122;2023-04-06T07:10:22;16.67;;;6.60;;
30185;SDS011;31152;49.190;8.122;2023-04-06T07:12:52;47.22;;;7.63;;
30185;SDS011;31152;49.190;8.122;2023-04-06T07:15:21;13.38;;;6.35;;
30185;SDS011;31152;49.190;8.122;2023-04-06T07:17:50;18.10;;;7.35;;
30185;SDS011;31152;49.190;8.122;2023-04-06T07:20:18;22.73;;;7.18;;
30185;SDS011;31152;49.190;8.122;2023-04-06T07:22:45;128.60;;;12.68;;
30185;SDS011;31152;49.190;8.122;2023-04-06T07:25:14;18.08;;;8.40;;
30185;SDS011;31152;49.190;8.122;2023-04-06T07:27:41;16.00;;;7.20;;
30185;SDS011;31152;49.190;8.122;2023-04-06T07:30:10;27.02;;;7.88;;
30185;SDS011;31152;49.190;8.122;2023-04-06T07:32:37;16.67;;;7.35;;
30185;SDS011;31152;49.190;8.122;2023-04-06T07:35:06;12.32;;;6.68;;
30185;SDS011;31152;49.190;8.122;2023-04-06T07:37:33;16.08;;;7.20;;
30185;SDS011;31152;49.190;8.122;2023-04-06T07:40:02;13.32;;;7.00;;
30185;SDS011;31152;49.190;8.122;2023-04-06T07:42:30;12.65;;;6.63;;
30185;SDS011;31152;49.190;8.122;2023-04-06T07:44:56;12.20;;;6.80;;
30185;SDS011;31152;49.190;8.122;2023-04-06T07:47:25;11.43;;;6.57;;
30185;SDS011;31152;49.190;8.122;2023-04-06T07:49:54;11.63;;;6.63;;
30185;SDS011;31152;49.190;8.122;2023-04-06T07:52:24;17.40;;;6.68;;
30185;SDS011;31152;49.190;8.122;2023-04-06T07:54:51;19.40;;;6.85;;
30185;SDS011;31152;49.190;8.122;2023-04-06T07:57:18;16.15;;;6.72;;
30185;SDS011;31152;49.190;8.122;2023-04-06T07:59:47;12.35;;;6.63;;
30185;SDS011;31152;49.190;8.122;2023-04-06T08:02:18;12.07;;;6.40;;
30185;SDS011;31152;49.190;8.122;2023-04-06T08:04:48;14.68;;;7.05;;
30185;SDS011;31152;49.190;8.122;2023-04-06T08:07:15;14.13;;;7.80;;
30185;SDS011;31152;49.190;8.122;2023-04-06T08:09:41;18.80;;;7.60;;
30185;SDS011;31152;49.190;8.122;2023-04-06T08:12:11;19.02;;;8.77;;
30185;SDS011;31152;49.190;8.122;2023-04-06T08:14:38;16.88;;;8.10;;
30185;SDS011;31152;49.190;8.122;2023-04-06T08:17:05;16.05;;;7.95;;
30185;SDS011;31152;49.190;8.122;2023-04-06T08:19:31;19.60;;;8.32;;
30185;SDS011;31152;49.190;8.122;2023-04-06T08:21:58;21.25;;;9.07;;
30185;SDS011;31152;49.190;8.122;2023-04-06T08:24:25;20.05;;;7.93;;
30185;SDS011;31152;49.190;8.122;2023-04-06T08:26:52;15.63;;;8.60;;
30185;SDS011;31152;49.190;8.122;2023-04-06T08:29:19;25.27;;;9.65;;
30185;SDS011;31152;49.190;8.122;2023-04-06T08:31:46;18.58;;;8.50;;
30185;SDS011;31152;49.190;8.122;2023-04-06T08:34:13;15.50;;;7.88;;
30185;SDS011;31152;49.190;8.122;2023-04-06T08:36:42;17.38;;;7.50;;
30185;SDS011;31152;49.190;8.122;2023-04-06T08:39:08;16.52;;;7.05;;
30185;SDS011;31152;49.190;8.122;2023-04-06T08:41:35;14.23;;;7.43;;
30185;SDS011;31152;49.190;8.122;2023-04-06T08:44:05;20.15;;;7.35;;
30185;SDS011;31152;49.190;8.122;2023-04-06T08:46:32;14.23;;;7.10;;
30185;SDS011;31152;49.190;8.122;2023-04-06T08:49:01;12.00;;;6.85;;
30185;SDS011;31152;49.190;8.122;2023-04-06T08:51:29;12.20;;;7.03;;
30185;SDS011;31152;49.190;8.122;2023-04-06T08:53:57;12.50;;;7.20;;
30185;SDS011;31152;49.190;8.122;2023-04-06T08:56:26;16.05;;;7.47;;
30185;SDS011;31152;49.190;8.122;2023-04-06T08:58:54;11.93;;;6.38;;
30185;SDS011;31152;49.190;8.122;2023-04-06T09:01:28;14.77;;;6.70;;
30185;SDS011;31152;49.190;8.122;2023-04-06T09:03:56;12.55;;;7.10;;
30185;SDS011;31152;49.190;8.122;2023-04-06T09:06:28;14.45;;;7.68;;
30185;SDS011;31152;49.190;8.122;2023-04-06T09:08:54;17.52;;;7.63;;
30185;SDS011;31152;49.190;8.122;2023-04-06T09:11:24;16.52;;;7.68;;
30185;SDS011;31152;49.190;8.122;2023-04-06T09:13:52;13.82;;;7.43;;
30185;SDS011;31152;49.190;8.122;2023-04-06T09:16:22;12.85;;;7.32;;
30185;SDS011;31152;49.190;8.122;2023-04-06T09:18:49;14.57;;;7.25;;
30185;SDS011;31152;49.190;8.122;2023-04-06T09:21:17;13.25;;;7.63;;
30185;SDS011;31152;49.190;8.122;2023-04-06T09:23:47;12.75;;;7.55;;
30185;SDS011;31152;49.190;8.122;2023-04-06T09:26:26;12.57;;;7.75;;
30185;SDS011;31152;49.190;8.122;2023-04-06T09:28:54;16.38;;;8.05;;
30185;SDS011;31152;49.190;8.122;2023-04-06T09:31:28;11.70;;;7.60;;
30185;SDS011;31152;49.190;8.122;2023-04-06T09:33:59;13.43;;;7.15;;
30185;SDS011;31152;49.190;8.122;2023-04-06T09:36:33;13.70;;;7.65;;
30185;SDS011;31152;49.190;8.122;2023-04-06T09:39:02;12.35;;;7.32;;
30185;SDS011;31152;49.190;8.122;2023-04-06T09:44:07;11.90;;;7.30;;
30185;SDS011;31152;49.190;8.122;2023-04-06T09:46:40;13.43;;;7.10;;
30185;SDS011;31152;49.190;8.122;2023-04-06T09:49:26;13.40;;;6.43;;
30185;SDS011;31152;49.190;8.122;2023-04-06T09:51:56;14.38;;;7.07;;
30185;SDS011;31152;49.190;8.122;2023-04-06T09:54:28;11.57;;;6.53;;
30185;SDS011;31152;49.190;8.122;2023-04-06T09:56:56;12.23;;;6.80;;
30185;SDS011;31152;49.190;8.122;2023-04-06T10:04:59;12.80;;;5.68;;
30185;SDS011;31152;49.190;8.122;2023-04-06T10:07:49;11.63;;;6.40;;
30185;SDS011;31152;49.190;8.122;2023-04-06T10:10:26;12.30;;;5.75;;
30185;SDS011;31152;49.190;8.122;2023-04-06T10:12:54;12.10;;;5.97;;
30185;SDS011;31152;49.190;8.122;2023-04-06T10:15:22;7.75;;;5.50;;
30185;SDS011;31152;49.190;8.122;2023-04-06T10:17:52;10.60;;;6.15;;
30185;SDS011;31152;49.190;8.122;2023-04-06T10:25:56;11.20;;;5.30;;
30185;SDS011;31152;49.190;8.122;2023-04-06T10:28:30;9.07;;;4.80;;
30185;SDS011;31152;49.190;8.122;2023-04-06T10:30:58;9.00;;;5.00;;
30185;SDS011;31152;49.190;8.122;2023-04-06T10:33:26;10.40;;;5.47;;
30185;SDS011;31152;49.190;8.122;2023-04-06T10:35:53;11.32;;;4.68;;
30185;SDS011;31152;49.190;8.122;2023-04-06T10:38:39;8.32;;;5.13;;
30185;SDS011;31152;49.190;8.122;2023-04-06T10:41:11;7.93;;;4.75;;
30185;SDS011;31152;49.190;8.122;2023-04-06T10:43:39;7.28;;;4.57;;
30185;SDS011;31152;49.190;8.122;2023-04-06T10:46:07;17.48;;;5.30;;
30185;SDS011;31152;49.190;8.122;2023-04-06T10:48:39;11.90;;;5.50;;
30185;SDS011;31152;49.190;8.122;2023-04-06T10:51:08;8.05;;;3.92;;
30185;SDS011;31152;49.190;8.122;2023-04-06T10:53:43;9.98;;;5.00;;
30185;SDS011;31152;49.190;8.122;2023-04-06T10:56:12;8.57;;;4.20;;
30185;SDS011;31152;49.190;8.122;2023-04-06T10:58:44;7.45;;;4.63;;
30185;SDS011;31152;49.190;8.122;2023-04-06T11:01:13;8.52;;;5.28;;
30185;SDS011;31152;49.190;8.122;2023-04-06T11:03:46;7.13;;;4.03;;
30185;SDS011;31152;49.190;8.122;2023-04-06T11:06:17;9.40;;;4.22;;
30185;SDS011;31152;49.190;8.122;2023-04-06T11:08:48;8.48;;;4.63;;
30185;SDS011;31152;49.190;8.122;2023-04-06T11:11:16;6.45;;;4.22;;
30185;SDS011;31152;49.190;8.122;2023-04-06T11:13:50;9.68;;;4.30;;
30185;SDS011;31152;49.190;8.122;2023-04-06T11:16:20;8.60;;;3.92;;
30185;SDS011;31152;49.190;8.122;2023-04-06T11:24:16;6.72;;;4.45;;
30185;SDS011;31152;49.190;8.122;2023-04-06T11:26:51;6.35;;;4.13;;
30185;SDS011;31152;49.190;8.122;2023-04-06T11:29:26;6.80;;;3.83;;
30185;SDS011;31152;49.190;8.122;2023-04-06T11:34:29;8.80;;;3.55;;
30185;SDS011;31152;49.190;8.122;2023-04-06T11:37:00;8.27;;;3.83;;
30185;SDS011;31152;49.190;8.122;2023-04-06T11:42:24;11.27;;;4.70;;
30185;SDS011;31152;49.190;8.122;2023-04-06T11:44:53;8.32;;;4.93;;
30185;SDS011;31152;49.190;8.122;2023-04-06T11:47:27;8.90;;;4.80;;
30185;SDS011;31152;49.190;8.122;2023-04-06T11:49:55;7.43;;;3.85;;
30185;SDS011;31152;49.190;8.122;2023-04-06T11:52:26;8.25;;;3.50;;
30185;SDS011;31152;49.190;8.122;2023-04-06T11:54:54;7.95;;;3.50;;
30185;SDS011;31152;49.190;8.122;2023-04-06T11:57:23;6.22;;;4.07;;
30185;SDS011;31152;49.190;8.122;2023-04-06T11:59:51;6.20;;;3.95;;
30185;SDS011;31152;49.190;8.122;2023-04-06T12:02:18;6.70;;;3.70;;
30185;SDS011;31152;49.190;8.122;2023-04-06T12:04:45;6.88;;;3.80;;
30185;SDS011;31152;49.190;8.122;2023-04-06T12:07:12;7.80;;;4.00;;
30185;SDS011;31152;49.190;8.122;2023-04-06T12:09:39;10.13;;;5.80;;
30185;SDS011;31152;49.190;8.122;2023-04-06T12:12:06;10.05;;;5.25;;
30185;SDS011;31152;49.190;8.122;2023-04-06T12:14:35;8.57;;;5.05;;
30185;SDS011;31152;49.190;8.122;2023-04-06T12:17:02;7.65;;;4.55;;
30185;SDS011;31152;49.190;8.122;2023-04-06T12:19:31;13.80;;;5.90;;
30185;SDS011;31152;49.190;8.122;2023-04-06T12:21:58;10.15;;;5.70;;
30185;SDS011;31152;49.190;8.122;2023-04-06T12:24:25;10.60;;;5.95;;
30185;SDS011;31152;49.190;8.122;2023-04-06T12:26:53;10.02;;;5.95;;
30185;SDS011;31152;49.190;8.122;2023-04-06T12:29:34;10.68;;;5.82;;
30185;SDS011;31152;49.190;8.122;2023-04-06T12:32:04;11.00;;;6.28;;
30185;SDS011;31152;49.190;8.122;2023-04-06T12:34:32;12.88;;;6.00;;
30185;SDS011;31152;49.190;8.122;2023-04-06T12:36:59;11.15;;;6.88;;
30185;SDS011;31152;49.190;8.122;2023-04-06T12:39:27;11.93;;;6.32;;
30185;SDS011;31152;49.190;8.122;2023-04-06T12:41:54;9.95;;;5.57;;
30185;SDS011;31152;49.190;8.122;2023-04-06T12:44:22;10.82;;;6.15;;
30185;SDS011;31152;49.190;8.122;2023-04-06T12:46:51;13.07;;;6.38;;
30185;SDS011;31152;49.190;8.122;2023-04-06T12:49:18;10.13;;;5.80;;
30185;SDS011;31152;49.190;8.122;2023-04-06T12:51:45;10.88;;;6.55;;
30185;SDS011;31152;49.190;8.122;2023-04-06T12:54:12;12.05;;;6.45;;
30185;SDS011;31152;49.190;8.122;2023-04-06T12:56:41;11.85;;;6.13;;
30185;SDS011;31152;49.190;8.122;2023-04-06T12:59:08;11.50;;;6.05;;
30185;SDS011;31152;49.190;8.122;2023-04-06T13:01:35;11.10;;;6.30;;
30185;SDS011;31152;49.190;8.122;2023-04-06T13:04:02;10.23;;;5.93;;
30185;SDS011;31152;49.190;8.122;2023-04-06T13:06:29;10.07;;;6.28;;
30185;SDS011;31152;49.190;8.122;2023-04-06T13:08:56;9.57;;;5.90;;
30185;SDS011;31152;49.190;8.122;2023-04-06T13:11:23;12.20;;;6.40;;
30185;SDS011;31152;49.190;8.122;2023-04-06T13:13:53;15.18;;;7.13;;
30185;SDS011;31152;49.190;8.122;2023-04-06T13:16:20;12.20;;;6.38;;
30185;SDS011;31152;49.190;8.122;2023-04-06T13:18:52;10.00;;;6.07;;
30185;SDS011;31152;49.190;8.122;2023-04-06T13:21:21;10.30;;;6.15;;
30185;SDS011;31152;49.190;8.122;2023-04-06T13:23:48;11.18;;;6.28;;
30185;SDS011;31152;49.190;8.122;2023-04-06T13:26:14;10.98;;;7.00;;
30185;SDS011;31152;49.190;8.122;2023-04-06T13:28:42;10.30;;;5.97;;
30185;SDS011;31152;49.190;8.122;2023-04-06T13:31:12;9.90;;;6.15;;
30185;SDS011;31152;49.190;8.122;2023-04-06T13:33:38;11.20;;;6.45;;
30185;SDS011;31152;49.190;8.122;2023-04-06T13:36:07;9.50;;;5.50;;
30185;SDS011;31152;49.190;8.122;2023-04-06T13:38:34;10.60;;;6.43;;
30185;SDS011;31152;49.190;8.122;2023-04-06T13:41:01;8.63;;;5.38;;
30185;SDS011;31152;49.190;8.122;2023-04-06T13:43:28;12.68;;;6.18;;
30185;SDS011;31152;49.190;8.122;2023-04-06T13:45:55;13.35;;;5.50;;
30185;SDS011;31152;49.190;8.122;2023-04-06T13:48:24;13.35;;;5.47;;
30185;SDS011;31152;49.190;8.122;2023-04-06T13:50:52;10.05;;;5.82;;
30185;SDS011;31152;49.190;8.122;2023-04-06T13:53:19;12.02;;;5.93;;
30185;SDS011;31152;49.190;8.122;2023-04-06T13:55:52;11.10;;;5.88;;
30185;SDS011;31152;49.190;8.122;2023-04-06T13:58:21;11.38;;;6.25;;
30185;SDS011;31152;49.190;8.122;2023-04-06T14:00:48;9.90;;;5.57;;
30185;SDS011;31152;49.190;8.122;2023-04-06T14:03:15;11.35;;;5.93;;
30185;SDS011;31152;49.190;8.122;2023-04-06T14:05:47;12.60;;;5.93;;
30185;SDS011;31152;49.190;8.122;2023-04-06T14:08:14;9.10;;;5.60;;
30185;SDS011;31152;49.190;8.122;2023-04-06T14:10:41;11.13;;;5.72;;
30185;SDS011;31152;49.190;8.122;2023-04-06T14:13:08;14.05;;;5.82;;
30185;SDS011;31152;49.190;8.122;2023-04-06T14:15:38;10.95;;;5.47;;
30185;SDS011;31152;49.190;8.122;2023-04-06T14:18:05;14.43;;;5.93;;
30185;SDS011;31152;49.190;8.122;2023-04-06T14:20:32;11.50;;;6.18;;
30185;SDS011;31152;49.190;8.122;2023-04-06T14:23:03;9.63;;;5.30;;
30185;SDS011;31152;49.190;8.122;2023-04-06T14:25:30;9.48;;;5.60;;
30185;SDS011;31152;49.190;8.122;2023-04-06T14:28:01;12.68;;;6.10;;
30185;SDS011;31152;49.190;8.122;2023-04-06T14:30:29;13.27;;;6.30;;
30185;SDS011;31152;49.190;8.122;2023-04-06T14:32:57;11.63;;;5.93;;
30185;SDS011;31152;49.190;8.122;2023-04-06T14:35:24;12.10;;;5.82;;
30185;SDS011;31152;49.190;8.122;2023-04-06T14:37:54;12.20;;;6.18;;
30185;SDS011;31152;49.190;8.122;2023-04-06T14:40:23;12.57;;;5.60;;
30185;SDS011;31152;49.190;8.122;2023-04-06T14:42:50;11.20;;;5.93;;
30185;SDS011;31152;49.190;8.122;2023-04-06T14:45:17;13.38;;;6.50;;
30185;SDS011;31152;49.190;8.122;2023-04-06T14:47:46;12.23;;;7.10;;
30185;SDS011;31152;49.190;8.122;2023-04-06T14:50:12;12.63;;;6.50;;
30185;SDS011;31152;49.190;8.122;2023-04-06T14:52:41;14.73;;;6.60;;
30185;SDS011;31152;49.190;8.122;2023-04-06T14:55:12;17.73;;;6.25;;
30185;SDS011;31152;49.190;8.122;2023-04-06T14:57:40;13.60;;;6.25;;
30185;SDS011;31152;49.190;8.122;2023-04-06T15:00:07;12.05;;;6.68;;
30185;SDS011;31152;49.190;8.122;2023-04-06T15:02:35;12.55;;;5.88;;
30185;SDS011;31152;49.190;8.122;2023-04-06T15:05:03;11.70;;;5.85;;
30185;SDS011;31152;49.190;8.122;2023-04-06T15:07:31;10.13;;;5.22;;
30185;SDS011;31152;49.190;8.122;2023-04-06T15:09:58;10.20;;;5.55;;